createdAt,value
2023-02-09T00:03:57.559Z,48.61
2023-02-09T00:08:59.280Z,48.66
2023-02-09T00:14:00.650Z,48.73
2023-02-09T00:19:01.993Z,48.44
2023-02-09T00:24:03.870Z,48.52
2023-02-09T00:29:06.573Z,48.53
2023-02-09T00:34:08.471Z,48.35
2023-02-09T00:39:09.902Z,49.09
2023-02-09T00:44:12.543Z,49.76
2023-02-09T00:49:13.940Z,49.35
2023-02-09T00:54:16.949Z,48.91
2023-02-09T00:59:18.724Z,49.28
2023-02-09T01:04:20.170Z,49.43
2023-02-09T01:09:21.993Z,49.51
2023-02-09T01:14:24.328Z,49.76
2023-02-09T01:19:26.749Z,50.44
2023-02-09T01:24:28.300Z,50.17
2023-02-09T01:29:29.661Z,51.14
2023-02-09T01:34:31.023Z,51.05
2023-02-09T01:39:33.221Z,50.17
2023-02-09T01:44:37.601Z,50.04
2023-02-09T01:49:39.193Z,50.19
2023-02-09T01:54:49.157Z,51.11
2023-02-09T01:59:56.201Z,51.15
2023-02-09T02:04:57.949Z,51.37
2023-02-09T02:10:01.063Z,51.51
2023-02-09T02:15:02.634Z,51.75
2023-02-09T02:20:42.549Z,51.74
2023-02-09T02:26:03.238Z,52.22
2023-02-09T02:31:10.507Z,52.53
2023-02-09T02:36:47.259Z,52.39
2023-02-09T02:42:28.127Z,52.82
2023-02-09T02:47:35.168Z,52.67
2023-02-09T02:52:39.517Z,53.37
2023-02-09T02:57:45.190Z,53.45
2023-02-09T03:02:54.938Z,53.31
2023-02-09T03:07:56.261Z,53.11
2023-02-09T03:13:28.214Z,53.80
2023-02-09T03:18:40.473Z,53.99
2023-02-09T03:23:54.205Z,53.47
2023-02-09T03:28:58.754Z,53.77
2023-02-09T03:34:01.140Z,53.77
2023-02-09T03:39:03.672Z,53.83
2023-02-09T03:44:23.893Z,53.21
2023-02-09T03:49:28.032Z,53.98
2023-02-09T03:54:30.693Z,53.85
2023-02-09T03:59:35.401Z,54.52
2023-02-09T04:04:37.485Z,54.55
2023-02-09T04:09:38.912Z,54.76
2023-02-09T04:14:40.243Z,54.64
2023-02-09T04:19:42.064Z,54.41
2023-02-09T04:24:43.416Z,53.71
2023-02-09T04:29:45.046Z,54.44
2023-02-09T04:34:46.715Z,54.53
2023-02-09T04:39:48.145Z,54.61
2023-02-09T04:44:49.822Z,55.22
2023-02-09T04:49:51.215Z,55.11
2023-02-09T04:54:52.608Z,54.60
2023-02-09T04:59:54.009Z,55.27
2023-02-09T05:04:55.294Z,55.33
2023-02-09T05:09:56.628Z,55.68
2023-02-09T05:14:57.964Z,55.68
2023-02-09T05:20:00.575Z,55.97
2023-02-09T05:25:01.925Z,56.12
2023-02-09T05:30:04.038Z,56.47
2023-02-09T05:35:08.445Z,56.45
2023-02-09T05:40:10.316Z,57.45
2023-02-09T05:45:11.640Z,56.97
2023-02-09T05:50:13.167Z,56.42
2023-02-09T05:55:14.528Z,57.49
2023-02-09T06:00:16.278Z,57.84
2023-02-09T06:05:17.782Z,57.51
2023-02-09T06:10:19.280Z,58.05
2023-02-09T06:15:21.058Z,58.24
2023-02-09T06:20:22.637Z,58.30
2023-02-09T06:25:24.019Z,57.67
2023-02-09T06:30:25.438Z,58.03
2023-02-09T06:35:26.899Z,58.57
2023-02-09T06:40:28.597Z,57.96
2023-02-09T06:45:30.266Z,59.04
2023-02-09T06:50:31.643Z,58.09
2023-02-09T06:55:34.239Z,58.70
2023-02-09T07:00:35.706Z,61.11
2023-02-09T07:05:37.070Z,57.79
2023-02-09T07:10:40.536Z,57.61
2023-02-09T07:15:42.032Z,57.83
2023-02-09T07:20:43.692Z,57.33
2023-02-09T07:25:45.161Z,57.23
2023-02-09T07:30:52.084Z,57.17
2023-02-09T07:35:53.600Z,56.47
2023-02-09T07:40:55.216Z,56.39
2023-02-09T07:46:01.514Z,55.70
2023-02-09T07:51:03.922Z,55.74
2023-02-09T07:56:06.012Z,54.93
2023-02-09T08:01:10.530Z,54.94
2023-02-09T08:06:41.476Z,54.59
2023-02-09T08:11:52.588Z,54.54
2023-02-09T08:17:17.250Z,54.32
2023-02-09T08:22:19.203Z,54.18
2023-02-09T08:27:20.676Z,53.46
2023-02-09T08:32:22.094Z,53.22
2023-02-09T08:37:23.431Z,52.93
2023-02-09T08:42:24.953Z,53.57
2023-02-09T08:47:26.636Z,53.64
2023-02-09T08:52:28.005Z,53.89
2023-02-09T08:57:43.125Z,54.04
2023-02-09T09:02:45.477Z,53.70
2023-02-09T09:07:46.906Z,52.82
2023-02-09T09:12:48.391Z,52.81
2023-02-09T09:17:49.817Z,52.02
2023-02-09T09:22:51.244Z,51.93
2023-02-09T09:27:52.723Z,50.59
2023-02-09T09:32:55.157Z,49.89
2023-02-09T09:37:58.428Z,48.28
2023-02-09T09:43:08.659Z,47.27
2023-02-09T09:48:28.232Z,46.17
2023-02-09T09:53:35.380Z,44.38
2023-02-09T09:58:41.584Z,42.60
2023-02-09T10:03:43.840Z,40.52
2023-02-09T10:08:59.555Z,36.06
2023-02-09T10:14:01.398Z,32.01
2023-02-09T10:19:05.646Z,30.59
2023-02-09T10:24:23.741Z,29.88
2023-02-09T10:29:25.971Z,30.88
2023-02-09T10:34:40.973Z,31.41
2023-02-09T10:39:42.420Z,31.09
2023-02-09T10:44:50.983Z,28.17
2023-02-09T10:49:55.556Z,24.31
2023-02-09T10:55:02.410Z,22.10
2023-02-09T11:00:15.806Z,20.18
2023-02-09T11:05:20.433Z,19.18
2023-02-09T11:10:22.463Z,19.61
2023-02-09T11:15:27.599Z,17.70
2023-02-09T11:20:35.453Z,17.56
2023-02-09T11:25:48.607Z,16.90
2023-02-09T11:31:40.429Z,16.59
2023-02-09T11:37:04.365Z,16.09
2023-02-09T11:42:31.872Z,15.24
2023-02-09T11:47:40.284Z,15.54
2023-02-09T11:52:51.585Z,15.40
2023-02-09T11:58:02.965Z,14.60
2023-02-09T12:03:11.948Z,14.18
2023-02-09T12:08:32.058Z,14.46
2023-02-09T12:13:39.191Z,14.70
2023-02-09T12:18:43.210Z,13.72
2023-02-09T12:23:45.046Z,13.79
2023-02-09T12:29:03.534Z,13.69
2023-02-09T12:34:14.502Z,13.88
2023-02-09T12:39:24.079Z,14.25
2023-02-09T12:44:25.542Z,14.09
2023-02-09T12:49:26.886Z,13.75
2023-02-09T12:54:29.180Z,13.60
2023-02-09T12:59:30.470Z,13.03
2023-02-09T13:04:38.196Z,13.47
2023-02-09T13:09:41.184Z,14.18
2023-02-09T13:14:47.222Z,14.47
2023-02-09T13:19:54.646Z,14.03
2023-02-09T13:25:01.824Z,13.87
2023-02-09T13:30:03.266Z,14.17
2023-02-09T13:35:20.209Z,14.88
2023-02-09T13:40:30.229Z,14.45
2023-02-09T13:45:31.852Z,13.19
2023-02-09T13:50:33.376Z,13.22
2023-02-09T13:55:37.755Z,14.32
2023-02-09T14:00:49.892Z,14.32
2023-02-09T14:06:18.152Z,15.01
2023-02-09T14:11:42.985Z,15.19
2023-02-09T14:16:52.909Z,16.26
2023-02-09T14:21:55.119Z,17.67
2023-02-09T14:27:03.714Z,16.91
2023-02-09T14:32:33.494Z,16.97
2023-02-09T14:37:36.877Z,17.92
2023-02-09T14:42:56.979Z,18.60
2023-02-09T14:47:58.578Z,20.93
2023-02-09T14:53:08.102Z,21.43
2023-02-09T14:58:30.880Z,23.47
2023-02-09T15:03:32.278Z,24.17
2023-02-09T15:08:37.446Z,25.23
2023-02-09T15:13:39.065Z,26.42
2023-02-09T15:18:40.528Z,28.07
2023-02-09T15:23:42.694Z,29.97
2023-02-09T15:28:44.039Z,30.56
2023-02-09T15:33:45.322Z,31.82
2023-02-09T15:38:47.288Z,33.03
2023-02-09T15:44:07.268Z,33.89
2023-02-09T15:49:08.910Z,34.69
2023-02-09T15:54:22.136Z,35.68
2023-02-09T15:59:23.853Z,36.45
2023-02-09T16:04:25.279Z,37.32
2023-02-09T16:09:28.719Z,39.17
2023-02-09T16:14:31.527Z,40.11
2023-02-09T16:19:32.939Z,41.06
2023-02-09T16:24:43.897Z,41.04
2023-02-09T16:29:45.220Z,41.53
2023-02-09T16:34:46.573Z,41.07
2023-02-09T16:39:47.940Z,41.89
2023-02-09T16:44:49.297Z,41.93
2023-02-09T16:50:02.841Z,42.83
2023-02-09T16:55:06.951Z,42.96
2023-02-09T17:00:09.196Z,43.42
2023-02-09T17:05:31.543Z,43.67
2023-02-09T17:10:34.919Z,44.01
2023-02-09T17:15:42.304Z,44.15
2023-02-09T17:20:47.765Z,44.83
2023-02-09T17:25:50.889Z,45.16
2023-02-09T17:30:56.330Z,45.24
2023-02-09T17:36:24.790Z,45.73
2023-02-09T17:41:22.989Z,46.42
2023-02-09T17:46:24.337Z,46.27
2023-02-09T17:51:34.608Z,46.61
2023-02-09T17:56:36.144Z,46.56
2023-02-09T18:01:42.284Z,47.05
2023-02-09T18:06:43.690Z,47.41
2023-02-09T18:11:45.008Z,47.15
2023-02-09T18:16:47.680Z,47.51
2023-02-09T18:21:58.288Z,47.20
2023-02-09T18:27:00.302Z,47.44
2023-02-09T18:32:02.592Z,47.80
2023-02-09T18:37:04.113Z,48.12
2023-02-09T18:42:05.566Z,48.07
2023-02-09T18:47:07.348Z,47.88
2023-02-09T18:52:10.142Z,48.17
2023-02-09T18:57:13.070Z,48.16
2023-02-09T19:02:14.996Z,48.28
2023-02-09T19:07:16.947Z,48.38
2023-02-09T19:12:18.494Z,48.57
2023-02-09T19:17:21.476Z,49.33
2023-02-09T19:22:22.910Z,48.83
2023-02-09T19:27:26.749Z,49.52
2023-02-09T19:32:29.119Z,49.87
2023-02-09T19:37:30.843Z,50.03
2023-02-09T19:42:32.984Z,50.22
2023-02-09T19:47:34.407Z,50.44
2023-02-09T19:52:38.160Z,50.62
2023-02-09T19:57:39.599Z,50.84
2023-02-09T20:02:40.969Z,51.04
2023-02-09T20:07:43.319Z,50.86
2023-02-09T20:22:53.337Z,51.48
2023-02-09T20:27:55.534Z,52.02
2023-02-09T20:32:57.058Z,51.87
2023-02-09T20:37:58.498Z,52.65
2023-02-09T20:43:18.825Z,52.58
2023-02-09T20:48:20.181Z,52.49
2023-02-09T20:53:22.408Z,52.56
2023-02-09T20:58:24.710Z,52.47
2023-02-09T21:03:26.031Z,53.19
2023-02-09T21:08:27.370Z,53.35
2023-02-09T21:13:29.634Z,53.41
2023-02-09T21:18:30.969Z,53.29
2023-02-09T21:23:32.583Z,53.44
2023-02-09T21:28:35.596Z,54.27
2023-02-09T21:33:37.167Z,54.02
2023-02-09T21:38:41.445Z,54.57
2023-02-09T21:43:43.145Z,54.83
2023-02-09T21:48:44.784Z,54.76
2023-02-09T21:53:46.497Z,55.26
2023-02-09T21:58:48.027Z,55.28
2023-02-09T22:03:57.410Z,55.71
2023-02-09T22:09:02.457Z,55.83
2023-02-09T22:14:04.269Z,56.40
2023-02-09T22:19:05.696Z,56.59
2023-02-09T22:24:07.424Z,56.93
2023-02-09T22:29:10.182Z,56.96
2023-02-09T22:34:11.998Z,57.33
2023-02-09T22:39:14.477Z,56.43
2023-02-09T22:44:17.481Z,56.98
2023-02-09T22:49:20.913Z,57.80
2023-02-09T22:54:22.392Z,57.63
2023-02-09T22:59:23.710Z,57.40
2023-02-09T23:04:25.069Z,57.37
2023-02-09T23:09:26.615Z,57.75
2023-02-09T23:14:28.254Z,58.21
2023-02-09T23:19:29.555Z,58.81
2023-02-09T23:24:30.931Z,58.33
2023-02-09T23:29:32.537Z,58.97
2023-02-09T23:34:33.893Z,58.72
2023-02-09T23:39:37.077Z,59.08
2023-02-09T23:44:38.603Z,59.25
2023-02-09T23:49:40.018Z,59.94
2023-02-09T23:54:41.430Z,60.11
2023-02-09T23:59:42.757Z,60.52
